sensor_id;sensor_type;location;lat;lon;timestamp;P1;durP1;ratioP1;P2;durP2;ratioP2
30380;SDS011;17169;50.966;11.038;2023-04-03T00:02:49;5.10;;;1.55;;
30380;SDS011;17169;50.966;11.038;2023-04-03T00:05:52;7.38;;;1.73;;
30380;SDS011;17169;50.966;11.038;2023-04-03T00:08:54;6.57;;;1.85;;
30380;SDS011;17169;50.966;11.038;2023-04-03T00:11:58;9.10;;;1.80;;
30380;SDS011;17169;50.966;11.038;2023-04-03T00:15:00;4.97;;;1.60;;
30380;SDS011;17169;50.966;11.038;2023-04-03T00:18:03;8.18;;;1.63;;
30380;SDS011;17169;50.966;11.038;2023-04-03T00:21:05;4.78;;;1.45;;
30380;SDS011;17169;50.966;11.038;2023-04-03T00:24:08;3.85;;;1.63;;
30380;SDS011;17169;50.966;11.038;2023-04-03T00:27:12;8.05;;;1.70;;
30380;SDS011;17169;50.966;11.038;2023-04-03T00:30:16;4.50;;;1.83;;
30380;SDS011;17169;50.966;11.038;2023-04-03T00:33:21;6.40;;;2.88;;
30380;SDS011;17169;50.966;11.038;2023-04-03T00:36:24;4.18;;;1.60;;
30380;SDS011;17169;50.966;11.038;2023-04-03T00:39:27;5.63;;;1.63;;
30380;SDS011;17169;50.966;11.038;2023-04-03T00:42:31;11.73;;;2.05;;
30380;SDS011;17169;50.966;11.038;2023-04-03T00:45:34;6.63;;;1.70;;
30380;SDS011;17169;50.966;11.038;2023-04-03T00:48:38;6.15;;;2.10;;
30380;SDS011;17169;50.966;11.038;2023-04-03T00:51:43;7.68;;;1.92;;
30380;SDS011;17169;50.966;11.038;2023-04-03T00:54:45;8.63;;;2.30;;
30380;SDS011;17169;50.966;11.038;2023-04-03T00:57:51;4.95;;;2.30;;
30380;SDS011;17169;50.966;11.038;2023-04-03T01:00:55;7.18;;;2.30;;
30380;SDS011;17169;50.966;11.038;2023-04-03T01:04:00;6.20;;;2.03;;
30380;SDS011;17169;50.966;11.038;2023-04-03T01:07:04;4.65;;;2.10;;
30380;SDS011;17169;50.966;11.038;2023-04-03T01:10:10;4.75;;;1.70;;
30380;SDS011;17169;50.966;11.038;2023-04-03T01:13:22;6.80;;;2.55;;
30380;SDS011;17169;50.966;11.038;2023-04-03T01:16:26;5.53;;;2.10;;
30380;SDS011;17169;50.966;11.038;2023-04-03T01:19:30;6.50;;;2.13;;
30380;SDS011;17169;50.966;11.038;2023-04-03T01:22:34;10.43;;;2.13;;
30380;SDS011;17169;50.966;11.038;2023-04-03T01:25:49;11.23;;;2.63;;
30380;SDS011;17169;50.966;11.038;2023-04-03T01:28:54;6.28;;;2.00;;
30380;SDS011;17169;50.966;11.038;2023-04-03T01:31:59;10.60;;;2.08;;
30380;SDS011;17169;50.966;11.038;2023-04-03T01:35:03;7.65;;;2.38;;
30380;SDS011;17169;50.966;11.038;2023-04-03T01:38:05;7.13;;;1.90;;
30380;SDS011;17169;50.966;11.038;2023-04-03T01:41:08;5.40;;;2.25;;
30380;SDS011;17169;50.966;11.038;2023-04-03T01:44:10;5.13;;;2.00;;
30380;SDS011;17169;50.966;11.038;2023-04-03T01:47:14;5.97;;;2.10;;
30380;SDS011;17169;50.966;11.038;2023-04-03T01:50:17;8.80;;;2.40;;
30380;SDS011;17169;50.966;11.038;2023-04-03T01:53:19;11.52;;;2.03;;
30380;SDS011;17169;50.966;11.038;2023-04-03T01:56:22;7.95;;;2.38;;
30380;SDS011;17169;50.966;11.038;2023-04-03T01:59:24;6.43;;;2.20;;
30380;SDS011;17169;50.966;11.038;2023-04-03T02:02:28;6.57;;;2.13;;
30380;SDS011;17169;50.966;11.038;2023-04-03T02:05:30;10.80;;;2.08;;
30380;SDS011;17169;50.966;11.038;2023-04-03T02:08:32;10.05;;;2.13;;
30380;SDS011;17169;50.966;11.038;2023-04-03T02:11:35;10.80;;;2.05;;
30380;SDS011;17169;50.966;11.038;2023-04-03T02:14:37;11.25;;;2.13;;
30380;SDS011;17169;50.966;11.038;2023-04-03T02:17:41;7.57;;;2.13;;
30380;SDS011;17169;50.966;11.038;2023-04-03T02:20:43;6.00;;;1.70;;
30380;SDS011;17169;50.966;11.038;2023-04-03T02:23:46;12.65;;;2.45;;
30380;SDS011;17169;50.966;11.038;2023-04-03T02:26:48;14.05;;;2.67;;
30380;SDS011;17169;50.966;11.038;2023-04-03T02:29:50;5.68;;;2.33;;
30380;SDS011;17169;50.966;11.038;2023-04-03T02:32:54;6.30;;;1.77;;
30380;SDS011;17169;50.966;11.038;2023-04-03T02:35:57;6.60;;;2.17;;
30380;SDS011;17169;50.966;11.038;2023-04-03T02:39:00;10.40;;;2.28;;
30380;SDS011;17169;50.966;11.038;2023-04-03T02:42:03;9.43;;;2.15;;
30380;SDS011;17169;50.966;11.038;2023-04-03T02:45:06;9.15;;;2.13;;
30380;SDS011;17169;50.966;11.038;2023-04-03T02:48:10;5.32;;;1.98;;
30380;SDS011;17169;50.966;11.038;2023-04-03T02:51:12;8.88;;;2.50;;
30380;SDS011;17169;50.966;11.038;2023-04-03T02:54:15;12.25;;;2.60;;
30380;SDS011;17169;50.966;11.038;2023-04-03T02:57:17;8.00;;;2.20;;
30380;SDS011;17169;50.966;11.038;2023-04-03T03:00:20;6.80;;;2.47;;
30380;SDS011;17169;50.966;11.038;2023-04-03T03:03:24;11.02;;;3.00;;
30380;SDS011;17169;50.966;11.038;2023-04-03T03:06:26;8.90;;;2.13;;
30380;SDS011;17169;50.966;11.038;2023-04-03T03:09:28;7.60;;;2.75;;
30380;SDS011;17169;50.966;11.038;2023-04-03T03:12:31;11.27;;;2.33;;
30380;SDS011;17169;50.966;11.038;2023-04-03T03:15:33;10.25;;;3.30;;
30380;SDS011;17169;50.966;11.038;2023-04-03T03:18:37;4.88;;;2.03;;
30380;SDS011;17169;50.966;11.038;2023-04-03T03:21:39;10.13;;;2.63;;
30380;SDS011;17169;50.966;11.038;2023-04-03T03:24:41;8.63;;;2.72;;
30380;SDS011;17169;50.966;11.038;2023-04-03T03:27:44;9.10;;;2.70;;
30380;SDS011;17169;50.966;11.038;2023-04-03T03:30:46;7.75;;;2.28;;
30380;SDS011;17169;50.966;11.038;2023-04-03T03:33:50;4.53;;;2.40;;
30380;SDS011;17169;50.966;11.038;2023-04-03T03:36:52;8.80;;;2.40;;
30380;SDS011;17169;50.966;11.038;2023-04-03T03:39:55;7.93;;;2.50;;
30380;SDS011;17169;50.966;11.038;2023-04-03T03:42:57;10.38;;;2.97;;
30380;SDS011;17169;50.966;11.038;2023-04-03T03:46:00;4.15;;;2.60;;
30380;SDS011;17169;50.966;11.038;2023-04-03T03:49:04;12.82;;;2.83;;
30380;SDS011;17169;50.966;11.038;2023-04-03T03:52:06;8.00;;;2.97;;
30380;SDS011;17169;50.966;11.038;2023-04-03T03:55:11;5.97;;;2.60;;
30380;SDS011;17169;50.966;11.038;2023-04-03T03:58:13;5.72;;;2.70;;
30380;SDS011;17169;50.966;11.038;2023-04-03T04:01:15;8.27;;;3.25;;
30380;SDS011;17169;50.966;11.038;2023-04-03T04:04:20;12.32;;;3.65;;
30380;SDS011;17169;50.966;11.038;2023-04-03T04:07:22;5.82;;;2.50;;
30380;SDS011;17169;50.966;11.038;2023-04-03T04:10:24;8.13;;;2.80;;
30380;SDS011;17169;50.966;11.038;2023-04-03T04:13:27;7.70;;;2.75;;
30380;SDS011;17169;50.966;11.038;2023-04-03T04:16:29;8.23;;;3.17;;
30380;SDS011;17169;50.966;11.038;2023-04-03T04:19:33;9.10;;;2.70;;
30380;SDS011;17169;50.966;11.038;2023-04-03T04:22:35;7.53;;;2.67;;
30380;SDS011;17169;50.966;11.038;2023-04-03T04:25:38;7.13;;;3.08;;
30380;SDS011;17169;50.966;11.038;2023-04-03T04:28:40;5.93;;;2.75;;
30380;SDS011;17169;50.966;11.038;2023-04-03T04:31:43;8.10;;;3.38;;
30380;SDS011;17169;50.966;11.038;2023-04-03T04:34:46;8.88;;;2.95;;
30380;SDS011;17169;50.966;11.038;2023-04-03T04:37:49;9.00;;;2.85;;
30380;SDS011;17169;50.966;11.038;2023-04-03T04:40:51;9.48;;;2.83;;
30380;SDS011;17169;50.966;11.038;2023-04-03T04:43:53;10.90;;;3.78;;
30380;SDS011;17169;50.966;11.038;2023-04-03T04:46:56;8.23;;;3.28;;
30380;SDS011;17169;50.966;11.038;2023-04-03T04:49:59;7.97;;;3.53;;
30380;SDS011;17169;50.966;11.038;2023-04-03T04:53:02;9.65;;;3.28;;
30380;SDS011;17169;50.966;11.038;2023-04-03T04:56:04;9.95;;;3.60;;
30380;SDS011;17169;50.966;11.038;2023-04-03T04:59:07;10.38;;;3.25;;
30380;SDS011;17169;50.966;11.038;2023-04-03T05:02:10;8.65;;;3.42;;
30380;SDS011;17169;50.966;11.038;2023-04-03T05:05:13;6.03;;;3.00;;
30380;SDS011;17169;50.966;11.038;2023-04-03T05:08:16;6.65;;;3.22;;
30380;SDS011;17169;50.966;11.038;2023-04-03T05:11:18;12.52;;;3.45;;
30380;SDS011;17169;50.966;11.038;2023-04-03T05:14:21;8.68;;;3.67;;
30380;SDS011;17169;50.966;11.038;2023-04-03T05:17:23;7.28;;;3.30;;
30380;SDS011;17169;50.966;11.038;2023-04-03T05:20:27;6.32;;;3.00;;
30380;SDS011;17169;50.966;11.038;2023-04-03T05:23:29;11.02;;;3.25;;
30380;SDS011;17169;50.966;11.038;2023-04-03T05:26:32;10.38;;;3.67;;
30380;SDS011;17169;50.966;11.038;2023-04-03T05:29:34;7.43;;;2.97;;
30380;SDS011;17169;50.966;11.038;2023-04-03T05:32:36;7.60;;;2.88;;
30380;SDS011;17169;50.966;11.038;2023-04-03T05:35:40;12.85;;;3.47;;
30380;SDS011;17169;50.966;11.038;2023-04-03T05:38:44;7.28;;;3.20;;
30380;SDS011;17169;50.966;11.038;2023-04-03T05:41:47;7.57;;;3.15;;
30380;SDS011;17169;50.966;11.038;2023-04-03T05:44:49;7.50;;;3.17;;
30380;SDS011;17169;50.966;11.038;2023-04-03T05:47:51;9.40;;;3.40;;
30380;SDS011;17169;50.966;11.038;2023-04-03T05:50:55;11.55;;;3.92;;
30380;SDS011;17169;50.966;11.038;2023-04-03T05:53:59;10.93;;;3.85;;
30380;SDS011;17169;50.966;11.038;2023-04-03T05:57:06;10.02;;;3.70;;
30380;SDS011;17169;50.966;11.038;2023-04-03T06:00:11;11.50;;;3.97;;
30380;SDS011;17169;50.966;11.038;2023-04-03T06:03:16;7.72;;;3.85;;
30380;SDS011;17169;50.966;11.038;2023-04-03T06:06:19;12.07;;;3.67;;
30380;SDS011;17169;50.966;11.038;2023-04-03T06:09:23;10.82;;;3.20;;
30380;SDS011;17169;50.966;11.038;2023-04-03T06:12:26;10.35;;;3.85;;
30380;SDS011;17169;50.966;11.038;2023-04-03T06:15:29;9.52;;;3.40;;
30380;SDS011;17169;50.966;11.038;2023-04-03T06:18:31;9.63;;;2.70;;
30380;SDS011;17169;50.966;11.038;2023-04-03T06:21:35;9.13;;;3.47;;
30380;SDS011;17169;50.966;11.038;2023-04-03T06:24:38;10.77;;;4.17;;
30380;SDS011;17169;50.966;11.038;2023-04-03T06:27:40;10.10;;;3.35;;
30380;SDS011;17169;50.966;11.038;2023-04-03T06:30:43;11.40;;;3.85;;
30380;SDS011;17169;50.966;11.038;2023-04-03T06:33:45;6.78;;;2.67;;
30380;SDS011;17169;50.966;11.038;2023-04-03T06:36:49;8.25;;;2.67;;
30380;SDS011;17169;50.966;11.038;2023-04-03T06:39:51;8.15;;;3.03;;
30380;SDS011;17169;50.966;11.038;2023-04-03T06:42:54;8.18;;;2.42;;
30380;SDS011;17169;50.966;11.038;2023-04-03T06:45:56;8.38;;;2.30;;
30380;SDS011;17169;50.966;11.038;2023-04-03T06:48:58;6.63;;;2.42;;
30380;SDS011;17169;50.966;11.038;2023-04-03T06:52:02;8.07;;;2.83;;
30380;SDS011;17169;50.966;11.038;2023-04-03T06:55:05;4.70;;;2.60;;
30380;SDS011;17169;50.966;11.038;2023-04-03T06:58:08;5.38;;;2.05;;
30380;SDS011;17169;50.966;11.038;2023-04-03T07:01:11;5.38;;;2.03;;
30380;SDS011;17169;50.966;11.038;2023-04-03T07:04:15;5.50;;;2.53;;
30380;SDS011;17169;50.966;11.038;2023-04-03T07:07:20;11.30;;;2.90;;
30380;SDS011;17169;50.966;11.038;2023-04-03T07:10:22;9.32;;;3.47;;
30380;SDS011;17169;50.966;11.038;2023-04-03T07:13:25;10.75;;;3.22;;
30380;SDS011;17169;50.966;11.038;2023-04-03T07:16:28;9.27;;;3.13;;
30380;SDS011;17169;50.966;11.038;2023-04-03T07:19:31;13.35;;;4.65;;
30380;SDS011;17169;50.966;11.038;2023-04-03T07:22:35;18.13;;;5.65;;
30380;SDS011;17169;50.966;11.038;2023-04-03T07:28:48;19.77;;;7.45;;
30380;SDS011;17169;50.966;11.038;2023-04-03T07:31:50;18.75;;;7.60;;
30380;SDS011;17169;50.966;11.038;2023-04-03T07:34:53;15.20;;;6.38;;
30380;SDS011;17169;50.966;11.038;2023-04-03T07:37:57;11.43;;;5.38;;
30380;SDS011;17169;50.966;11.038;2023-04-03T07:40:59;13.00;;;4.25;;
30380;SDS011;17169;50.966;11.038;2023-04-03T07:44:02;8.10;;;3.70;;
30380;SDS011;17169;50.966;11.038;2023-04-03T07:47:05;8.98;;;3.55;;
30380;SDS011;17169;50.966;11.038;2023-04-03T07:50:08;10.45;;;3.90;;
30380;SDS011;17169;50.966;11.038;2023-04-03T07:53:12;11.27;;;3.50;;
30380;SDS011;17169;50.966;11.038;2023-04-03T07:56:14;11.05;;;3.88;;
30380;SDS011;17169;50.966;11.038;2023-04-03T07:59:17;5.68;;;2.53;;
30380;SDS011;17169;50.966;11.038;2023-04-03T08:02:20;5.03;;;2.45;;
30380;SDS011;17169;50.966;11.038;2023-04-03T08:05:22;6.85;;;2.65;;
30380;SDS011;17169;50.966;11.038;2023-04-03T08:08:27;13.23;;;2.42;;
30380;SDS011;17169;50.966;11.038;2023-04-03T08:11:30;8.73;;;2.08;;
30380;SDS011;17169;50.966;11.038;2023-04-03T08:14:33;6.88;;;2.50;;
30380;SDS011;17169;50.966;11.038;2023-04-03T08:17:36;7.20;;;2.22;;
30380;SDS011;17169;50.966;11.038;2023-04-03T08:20:38;6.88;;;1.92;;
30380;SDS011;17169;50.966;11.038;2023-04-03T08:23:42;5.22;;;1.63;;
30380;SDS011;17169;50.966;11.038;2023-04-03T08:26:45;5.10;;;2.20;;
30380;SDS011;17169;50.966;11.038;2023-04-03T08:29:47;4.32;;;1.83;;
30380;SDS011;17169;50.966;11.038;2023-04-03T08:32:50;6.15;;;2.05;;
30380;SDS011;17169;50.966;11.038;2023-04-03T08:35:52;4.43;;;1.67;;
30380;SDS011;17169;50.966;11.038;2023-04-03T08:38:56;5.07;;;1.88;;
30380;SDS011;17169;50.966;11.038;2023-04-03T08:41:59;6.35;;;1.85;;
30380;SDS011;17169;50.966;11.038;2023-04-03T08:45:09;6.55;;;2.20;;
30380;SDS011;17169;50.966;11.038;2023-04-03T08:48:15;8.05;;;2.10;;
30380;SDS011;17169;50.966;11.038;2023-04-03T08:51:22;7.28;;;2.13;;
30380;SDS011;17169;50.966;11.038;2023-04-03T08:54:29;5.07;;;2.07;;
30380;SDS011;17169;50.966;11.038;2023-04-03T08:57:35;4.97;;;1.75;;
30380;SDS011;17169;50.966;11.038;2023-04-03T09:00:43;3.70;;;1.70;;
30380;SDS011;17169;50.966;11.038;2023-04-03T09:03:48;7.03;;;1.83;;
30380;SDS011;17169;50.966;11.038;2023-04-03T09:06:51;4.45;;;1.63;;
30380;SDS011;17169;50.966;11.038;2023-04-03T09:09:58;5.32;;;1.77;;
30380;SDS011;17169;50.966;11.038;2023-04-03T09:13:04;5.55;;;1.70;;
30380;SDS011;17169;50.966;11.038;2023-04-03T09:16:14;7.63;;;2.00;;
30380;SDS011;17169;50.966;11.038;2023-04-03T09:19:25;7.55;;;1.65;;
30380;SDS011;17169;50.966;11.038;2023-04-03T09:22:38;4.90;;;2.05;;
30380;SDS011;17169;50.966;11.038;2023-04-03T09:25:45;4.00;;;1.70;;
30380;SDS011;17169;50.966;11.038;2023-04-03T09:28:47;7.47;;;1.95;;
30380;SDS011;17169;50.966;11.038;2023-04-03T09:31:52;5.97;;;1.92;;
30380;SDS011;17169;50.966;11.038;2023-04-03T09:34:59;4.97;;;1.45;;
30380;SDS011;17169;50.966;11.038;2023-04-03T09:38:14;2.92;;;1.35;;
30380;SDS011;17169;50.966;11.038;2023-04-03T09:41:20;8.05;;;1.52;;
30380;SDS011;17169;50.966;11.038;2023-04-03T09:44:24;6.70;;;2.00;;
30380;SDS011;17169;50.966;11.038;2023-04-03T09:47:29;7.57;;;1.63;;
30380;SDS011;17169;50.966;11.038;2023-04-03T09:50:34;5.80;;;1.30;;
30380;SDS011;17169;50.966;11.038;2023-04-03T09:53:38;4.80;;;1.58;;
30380;SDS011;17169;50.966;11.038;2023-04-03T09:56:43;2.40;;;1.20;;
30380;SDS011;17169;50.966;11.038;2023-04-03T09:59:56;1.35;;;0.93;;
30380;SDS011;17169;50.966;11.038;2023-04-03T10:03:00;2.72;;;1.25;;
30380;SDS011;17169;50.966;11.038;2023-04-03T10:06:04;7.22;;;1.58;;
30380;SDS011;17169;50.966;11.038;2023-04-03T10:09:23;4.63;;;1.10;;
30380;SDS011;17169;50.966;11.038;2023-04-03T10:12:29;6.32;;;1.52;;
30380;SDS011;17169;50.966;11.038;2023-04-03T10:15:32;10.95;;;2.50;;
30380;SDS011;17169;50.966;11.038;2023-04-03T10:18:42;6.28;;;1.83;;
30380;SDS011;17169;50.966;11.038;2023-04-03T10:21:49;5.88;;;1.70;;
30380;SDS011;17169;50.966;11.038;2023-04-03T10:25:00;5.00;;;1.55;;
30380;SDS011;17169;50.966;11.038;2023-04-03T10:28:08;8.68;;;1.73;;
30380;SDS011;17169;50.966;11.038;2023-04-03T10:31:18;7.03;;;2.17;;
30380;SDS011;17169;50.966;11.038;2023-04-03T10:34:28;6.20;;;1.63;;
30380;SDS011;17169;50.966;11.038;2023-04-03T10:37:35;5.40;;;1.95;;
30380;SDS011;17169;50.966;11.038;2023-04-03T10:40:52;5.60;;;2.00;;
30380;SDS011;17169;50.966;11.038;2023-04-03T10:44:05;6.25;;;2.58;;
30380;SDS011;17169;50.966;11.038;2023-04-03T10:47:16;4.07;;;1.75;;
30380;SDS011;17169;50.966;11.038;2023-04-03T10:50:35;3.97;;;1.83;;
30380;SDS011;17169;50.966;11.038;2023-04-03T10:53:48;5.18;;;2.28;;
30380;SDS011;17169;50.966;11.038;2023-04-03T10:56:57;6.07;;;2.28;;
30380;SDS011;17169;50.966;11.038;2023-04-03T11:00:07;6.53;;;1.52;;
30380;SDS011;17169;50.966;11.038;2023-04-03T11:03:23;2.47;;;1.52;;
30380;SDS011;17169;50.966;11.038;2023-04-03T11:06:32;6.00;;;1.55;;
30380;SDS011;17169;50.966;11.038;2023-04-03T11:09:39;4.88;;;1.50;;
30380;SDS011;17169;50.966;11.038;2023-04-03T11:12:44;5.97;;;1.77;;
30380;SDS011;17169;50.966;11.038;2023-04-03T11:15:52;3.83;;;1.90;;
30380;SDS011;17169;50.966;11.038;2023-04-03T11:22:01;5.25;;;1.60;;
30380;SDS011;17169;50.966;11.038;2023-04-03T11:25:14;6.30;;;1.73;;
30380;SDS011;17169;50.966;11.038;2023-04-03T11:28:22;6.90;;;1.73;;
30380;SDS011;17169;50.966;11.038;2023-04-03T11:31:32;5.35;;;1.45;;
30380;SDS011;17169;50.966;11.038;2023-04-03T11:34:44;3.97;;;1.27;;
30380;SDS011;17169;50.966;11.038;2023-04-03T11:40:53;3.80;;;1.30;;
30380;SDS011;17169;50.966;11.038;2023-04-03T11:43:58;8.87;;;1.70;;
30380;SDS011;17169;50.966;11.038;2023-04-03T11:47:04;2.60;;;1.65;;
30380;SDS011;17169;50.966;11.038;2023-04-03T11:50:08;4.50;;;1.80;;
30380;SDS011;17169;50.966;11.038;2023-04-03T11:53:40;3.47;;;1.60;;
30380;SDS011;17169;50.966;11.038;2023-04-03T11:56:43;5.43;;;1.65;;
30380;SDS011;17169;50.966;11.038;2023-04-03T11:59:45;7.50;;;1.40;;
30380;SDS011;17169;50.966;11.038;2023-04-03T12:02:50;4.13;;;1.52;;
30380;SDS011;17169;50.966;11.038;2023-04-03T12:05:53;3.08;;;1.48;;
30380;SDS011;17169;50.966;11.038;2023-04-03T12:08:57;4.85;;;1.42;;
30380;SDS011;17169;50.966;11.038;2023-04-03T12:12:01;4.07;;;1.35;;
30380;SDS011;17169;50.966;11.038;2023-04-03T12:15:50;5.82;;;1.60;;
30380;SDS011;17169;50.966;11.038;2023-04-03T12:18:59;5.22;;;1.70;;
30380;SDS011;17169;50.966;11.038;2023-04-03T12:22:08;8.85;;;1.80;;
30380;SDS011;17169;50.966;11.038;2023-04-03T12:28:50;4.30;;;1.23;;
30380;SDS011;17169;50.966;11.038;2023-04-03T12:31:56;5.20;;;1.40;;
30380;SDS011;17169;50.966;11.038;2023-04-03T12:35:13;7.20;;;1.40;;
30380;SDS011;17169;50.966;11.038;2023-04-03T12:38:33;5.03;;;1.35;;
30380;SDS011;17169;50.966;11.038;2023-04-03T12:41:50;7.28;;;1.60;;
30380;SDS011;17169;50.966;11.038;2023-04-03T12:44:58;4.38;;;1.60;;
30380;SDS011;17169;50.966;11.038;2023-04-03T12:48:14;4.13;;;1.20;;
30380;SDS011;17169;50.966;11.038;2023-04-03T12:51:20;2.83;;;1.25;;
30380;SDS011;17169;50.966;11.038;2023-04-03T12:54:30;6.50;;;1.45;;
30380;SDS011;17169;50.966;11.038;2023-04-03T12:57:37;2.17;;;1.10;;
30380;SDS011;17169;50.966;11.038;2023-04-03T13:00:39;3.67;;;1.13;;
30380;SDS011;17169;50.966;11.038;2023-04-03T13:03:42;6.80;;;1.60;;
30380;SDS011;17169;50.966;11.038;2023-04-03T13:06:49;3.63;;;1.38;;
30380;SDS011;17169;50.966;11.038;2023-04-03T13:09:55;5.65;;;1.30;;
30380;SDS011;17169;50.966;11.038;2023-04-03T13:13:07;5.95;;;1.52;;
30380;SDS011;17169;50.966;11.038;2023-04-03T13:16:11;5.25;;;1.45;;
30380;SDS011;17169;50.966;11.038;2023-04-03T13:19:15;5.55;;;1.20;;
30380;SDS011;17169;50.966;11.038;2023-04-03T13:22:24;7.30;;;1.40;;
30380;SDS011;17169;50.966;11.038;2023-04-03T13:25:31;7.60;;;0.98;;
30380;SDS011;17169;50.966;11.038;2023-04-03T13:28:35;2.30;;;0.93;;
30380;SDS011;17169;50.966;11.038;2023-04-03T13:34:43;12.20;;;1.83;;
30380;SDS011;17169;50.966;11.038;2023-04-03T13:37:54;4.45;;;1.30;;
30380;SDS011;17169;50.966;11.038;2023-04-03T13:40:58;6.90;;;1.90;;
30380;SDS011;17169;50.966;11.038;2023-04-03T13:44:17;7.80;;;2.47;;
30380;SDS011;17169;50.966;11.038;2023-04-03T13:47:26;3.83;;;1.55;;
30380;SDS011;17169;50.966;11.038;2023-04-03T13:50:50;8.57;;;1.45;;
30380;SDS011;17169;50.966;11.038;2023-04-03T13:53:57;5.18;;;1.42;;
30380;SDS011;17169;50.966;11.038;2023-04-03T13:57:02;5.38;;;1.38;;
30380;SDS011;17169;50.966;11.038;2023-04-03T14:00:20;2.97;;;1.25;;
30380;SDS011;17169;50.966;11.038;2023-04-03T14:03:37;3.20;;;1.10;;
30380;SDS011;17169;50.966;11.038;2023-04-03T14:06:43;4.07;;;1.10;;
30380;SDS011;17169;50.966;11.038;2023-04-03T14:09:47;4.32;;;1.40;;
30380;SDS011;17169;50.966;11.038;2023-04-03T14:12:50;3.67;;;1.40;;
30380;SDS011;17169;50.966;11.038;2023-04-03T14:15:52;4.20;;;1.17;;
30380;SDS011;17169;50.966;11.038;2023-04-03T14:18:55;3.38;;;1.40;;
30380;SDS011;17169;50.966;11.038;2023-04-03T14:21:58;7.43;;;1.70;;
30380;SDS011;17169;50.966;11.038;2023-04-03T14:25:03;3.90;;;1.33;;
30380;SDS011;17169;50.966;11.038;2023-04-03T14:28:12;5.70;;;1.50;;
30380;SDS011;17169;50.966;11.038;2023-04-03T14:31:18;7.85;;;2.15;;
30380;SDS011;17169;50.966;11.038;2023-04-03T14:34:22;5.40;;;1.52;;
30380;SDS011;17169;50.966;11.038;2023-04-03T14:37:25;4.95;;;1.50;;
30380;SDS011;17169;50.966;11.038;2023-04-03T14:40:31;4.50;;;1.75;;
30380;SDS011;17169;50.966;11.038;2023-04-03T14:43:33;7.55;;;1.30;;
30380;SDS011;17169;50.966;11.038;2023-04-03T14:46:36;2.40;;;1.17;;
30380;SDS011;17169;50.966;11.038;2023-04-03T14:49:41;7.10;;;1.58;;
30380;SDS011;17169;50.966;11.038;2023-04-03T14:52:44;4.95;;;1.60;;
30380;SDS011;17169;50.966;11.038;2023-04-03T14:55:48;6.10;;;1.70;;
30380;SDS011;17169;50.966;11.038;2023-04-03T14:58:52;4.28;;;1.30;;
30380;SDS011;17169;50.966;11.038;2023-04-03T15:01:57;5.10;;;1.33;;
30380;SDS011;17169;50.966;11.038;2023-04-03T15:05:00;5.25;;;1.50;;
30380;SDS011;17169;50.966;11.038;2023-04-03T15:08:04;5.53;;;1.80;;
30380;SDS011;17169;50.966;11.038;2023-04-03T15:11:08;4.80;;;1.48;;
30380;SDS011;17169;50.966;11.038;2023-04-03T15:14:11;4.67;;;1.40;;
30380;SDS011;17169;50.966;11.038;2023-04-03T15:17:14;4.20;;;1.50;;
30380;SDS011;17169;50.966;11.038;2023-04-03T15:20:20;4.28;;;1.40;;
30380;SDS011;17169;50.966;11.038;2023-04-03T15:26:28;6.40;;;1.50;;
30380;SDS011;17169;50.966;11.038;2023-04-03T15:29:31;4.22;;;1.77;;
30380;SDS011;17169;50.966;11.038;2023-04-03T15:32:34;6.57;;;1.40;;
30380;SDS011;17169;50.966;11.038;2023-04-03T15:35:36;7.05;;;1.83;;
30380;SDS011;17169;50.966;11.038;2023-04-03T15:38:39;8.65;;;2.28;;
30380;SDS011;17169;50.966;11.038;2023-04-03T15:41:42;4.68;;;1.65;;
30380;SDS011;17169;50.966;11.038;2023-04-03T15:44:45;7.73;;;1.90;;
30380;SDS011;17169;50.966;11.038;2023-04-03T15:47:48;5.25;;;1.80;;
30380;SDS011;17169;50.966;11.038;2023-04-03T15:50:50;4.45;;;1.60;;
30380;SDS011;17169;50.966;11.038;2023-04-03T15:53:53;5.32;;;1.50;;
30380;SDS011;17169;50.966;11.038;2023-04-03T15:56:57;3.95;;;1.38;;
30380;SDS011;17169;50.966;11.038;2023-04-03T15:59:59;2.95;;;1.48;;
30380;SDS011;17169;50.966;11.038;2023-04-03T16:03:04;4.82;;;2.22;;
30380;SDS011;17169;50.966;11.038;2023-04-03T16:06:07;5.60;;;1.88;;
30380;SDS011;17169;50.966;11.038;2023-04-03T16:09:10;6.93;;;2.10;;
30380;SDS011;17169;50.966;11.038;2023-04-03T16:12:14;4.93;;;2.03;;
30380;SDS011;17169;50.966;11.038;2023-04-03T16:15:16;6.18;;;1.83;;
30380;SDS011;17169;50.966;11.038;2023-04-03T16:18:19;4.70;;;1.50;;
30380;SDS011;17169;50.966;11.038;2023-04-03T16:21:21;4.30;;;1.50;;
30380;SDS011;17169;50.966;11.038;2023-04-03T16:24:24;3.95;;;1.52;;
30380;SDS011;17169;50.966;11.038;2023-04-03T16:27:28;11.25;;;2.17;;
30380;SDS011;17169;50.966;11.038;2023-04-03T16:30:31;5.32;;;1.70;;
30380;SDS011;17169;50.966;11.038;2023-04-03T16:33:34;6.22;;;1.90;;
30380;SDS011;17169;50.966;11.038;2023-04-03T16:36:37;4.55;;;1.50;;
30380;SDS011;17169;50.966;11.038;2023-04-03T16:39:40;4.32;;;1.63;;
30380;SDS011;17169;50.966;11.038;2023-04-03T16:42:43;8.70;;;2.05;;
30380;SDS011;17169;50.966;11.038;2023-04-03T16:45:46;4.88;;;1.33;;
30380;SDS011;17169;50.966;11.038;2023-04-03T16:48:48;7.97;;;2.95;;
30380;SDS011;17169;50.966;11.038;2023-04-03T16:51:51;7.15;;;2.97;;
30380;SDS011;17169;50.966;11.038;2023-04-03T16:54:53;8.05;;;3.13;;
30380;SDS011;17169;50.966;11.038;2023-04-03T16:57:57;3.75;;;1.73;;
30380;SDS011;17169;50.966;11.038;2023-04-03T17:01:07;4.82;;;1.77;;
30380;SDS011;17169;50.966;11.038;2023-04-03T17:04:11;3.90;;;1.40;;
30380;SDS011;17169;50.966;11.038;2023-04-03T17:07:14;6.65;;;1.63;;
30380;SDS011;17169;50.966;11.038;2023-04-03T17:10:16;8.98;;;1.70;;
30380;SDS011;17169;50.966;11.038;2023-04-03T17:13:20;6.38;;;1.45;;
30380;SDS011;17169;50.966;11.038;2023-04-03T17:16:22;5.95;;;1.40;;
30380;SDS011;17169;50.966;11.038;2023-04-03T17:19:25;5.50;;;1.70;;
30380;SDS011;17169;50.966;11.038;2023-04-03T17:22:29;7.32;;;2.30;;
30380;SDS011;17169;50.966;11.038;2023-04-03T17:25:32;6.43;;;2.22;;
30380;SDS011;17169;50.966;11.038;2023-04-03T17:28:36;6.65;;;1.50;;
30380;SDS011;17169;50.966;11.038;2023-04-03T17:31:40;6.93;;;1.70;;
30380;SDS011;17169;50.966;11.038;2023-04-03T17:34:42;7.53;;;1.67;;
30380;SDS011;17169;50.966;11.038;2023-04-03T17:37:47;7.97;;;2.33;;
30380;SDS011;17169;50.966;11.038;2023-04-03T17:40:50;7.82;;;1.70;;
30380;SDS011;17169;50.966;11.038;2023-04-03T17:43:54;4.57;;;1.80;;
30380;SDS011;17169;50.966;11.038;2023-04-03T17:46:56;3.08;;;1.70;;
30380;SDS011;17169;50.966;11.038;2023-04-03T17:49:59;4.43;;;2.08;;
30380;SDS011;17169;50.966;11.038;2023-04-03T17:53:01;5.55;;;1.80;;
30380;SDS011;17169;50.966;11.038;2023-04-03T17:56:07;5.47;;;1.92;;
30380;SDS011;17169;50.966;11.038;2023-04-03T17:59:11;5.55;;;1.73;;
30380;SDS011;17169;50.966;11.038;2023-04-03T18:02:13;4.03;;;1.50;;
30380;SDS011;17169;50.966;11.038;2023-04-03T18:05:16;5.00;;;1.90;;
30380;SDS011;17169;50.966;11.038;2023-04-03T18:08:18;9.63;;;2.05;;
30380;SDS011;17169;50.966;11.038;2023-04-03T18:11:21;5.45;;;2.05;;
30380;SDS011;17169;50.966;11.038;2023-04-03T18:14:29;3.35;;;1.60;;
30380;SDS011;17169;50.966;11.038;2023-04-03T18:17:33;5.03;;;1.80;;
30380;SDS011;17169;50.966;11.038;2023-04-03T18:20:35;6.72;;;2.08;;
30380;SDS011;17169;50.966;11.038;2023-04-03T18:23:38;7.50;;;2.13;;
30380;SDS011;17169;50.966;11.038;2023-04-03T18:26:44;7.88;;;2.40;;
30380;SDS011;17169;50.966;11.038;2023-04-03T18:32:53;4.30;;;1.80;;
30380;SDS011;17169;50.966;11.038;2023-04-03T18:35:56;7.32;;;1.80;;
30380;SDS011;17169;50.966;11.038;2023-04-03T18:38:58;5.97;;;1.73;;